Time;durP1;ratioP1;P1;durP2;ratioP2;P2;SDS_P1;SDS_P2;PMS_P1;PMS_P2;Temp;Humidity;BMP_temperature;BMP_pressure;BME280_temperature;BME280_humidity;BME280_pressure;Samples;Min_cycle;Max_cycle;Signal;HPM_P1;HPM_P2
2022/05/03 00:01:37;;;;;;;4.18;2.40;;;;;;;;;;4990931;28;20039;-77
2022/05/03 00:04:06;;;;;;;3.90;2.75;;;;;;;;;;4990894;28;20117;-77
2022/05/03 00:06:55;;;;;;;3.17;2.35;;;;;;;;;;4974576;28;20042;-77
2022/05/03 00:09:25;;;;;;;3.33;2.33;;;;;;;;;;4990910;28;20039;-77
2022/05/03 00:12:03;;;;;;;4.50;2.28;;;;;;;;;;4974738;28;20038;-77
2022/05/03 00:14:37;;;;;;;3.42;2.58;;;;;;;;;;4990744;28;20070;-77
2022/05/03 00:17:04;;;;;;;3.83;2.33;;;;;;;;;;5007001;28;20401;-78
2022/05/03 00:19:29;;;;;;;3.15;2.13;;;;;;;;;;5007154;28;20050;-78
2022/05/03 00:21:55;;;;;;;3.60;2.10;;;;;;;;;;4991002;28;20034;-77
2022/05/03 00:24:20;;;;;;;4.32;2.25;;;;;;;;;;4970985;28;20049;-77
2022/05/03 00:26:46;;;;;;;4.32;2.30;;;;;;;;;;4990327;28;20374;-78
2022/05/03 00:29:11;;;;;;;5.22;2.67;;;;;;;;;;4988009;28;20059;-78
2022/05/03 00:31:37;;;;;;;3.05;1.95;;;;;;;;;;5013924;28;20403;-78
2022/05/03 00:34:03;;;;;;;3.35;2.13;;;;;;;;;;5014245;28;20117;-77
2022/05/03 00:36:28;;;;;;;2.97;2.25;;;;;;;;;;4987246;28;20038;-78
2022/05/03 00:38:54;;;;;;;3.47;2.20;;;;;;;;;;5010011;28;20172;-78
2022/05/03 00:41:44;;;;;;;3.67;2.35;;;;;;;;;;4977614;28;20107;-78
2022/05/03 00:44:55;;;;;;;3.40;2.00;;;;;;;;;;5010133;28;20519;-78
2022/05/03 00:47:15;;;;;;;4.70;1.98;;;;;;;;;;5011906;28;20046;-78
2022/05/03 00:50:03;;;;;;;3.47;1.60;;;;;;;;;;4997611;28;20037;-78
2022/05/03 00:52:44;;;;;;;2.75;1.90;;;;;;;;;;5013657;28;20531;-78
2022/05/03 00:55:17;;;;;;;2.80;1.73;;;;;;;;;;5013647;28;20038;-78
2022/05/03 00:58:04;;;;;;;2.90;1.80;;;;;;;;;;5010538;28;20045;-78
2022/05/03 01:00:30;;;;;;;2.90;1.80;;;;;;;;;;4993663;28;20092;-78
2022/05/03 01:03:19;;;;;;;3.30;1.88;;;;;;;;;;4978206;28;20100;-78
2022/05/03 01:05:49;;;;;;;3.67;1.67;;;;;;;;;;5026773;28;20092;-78
2022/05/03 01:08:43;;;;;;;3.35;1.80;;;;;;;;;;4993714;28;20093;-78
2022/05/03 01:11:15;;;;;;;2.47;1.70;;;;;;;;;;5025427;28;20050;-78
2022/05/03 01:14:04;;;;;;;2.85;1.58;;;;;;;;;;4993613;28;20100;-78
2022/05/03 01:16:34;;;;;;;2.47;1.50;;;;;;;;;;5023557;28;20043;-78
2022/05/03 01:19:27;;;;;;;3.67;1.88;;;;;;;;;;5026503;28;20072;-78
2022/05/03 01:22:23;;;;;;;2.35;1.40;;;;;;;;;;4992063;28;20125;-78
2022/05/03 01:24:57;;;;;;;2.95;2.03;;;;;;;;;;5026306;28;20599;-78
2022/05/03 01:27:49;;;;;;;3.92;2.20;;;;;;;;;;4994120;28;20073;-78
2022/05/03 01:30:14;;;;;;;3.22;1.83;;;;;;;;;;5025214;28;20041;-78
2022/05/03 01:32:43;;;;;;;3.42;1.30;;;;;;;;;;5000606;28;20047;-78
2022/05/03 01:35:09;;;;;;;2.38;1.70;;;;;;;;;;5000538;28;20034;-78
2022/05/03 01:38:11;;;;;;;2.03;1.50;;;;;;;;;;4964625;28;20488;-78
2022/05/03 01:40:53;;;;;;;;;;;;;;;;;;5000388;28;20416;-78
2022/05/03 01:43:23;;;;;;;4.50;1.80;;;;;;;;;;5029221;28;19917;-78
2022/05/03 01:46:07;;;;;;;2.72;1.50;;;;;;;;;;5013111;28;20103;-78
2022/05/03 01:51:44;;;;;;;2.88;1.48;;;;;;;;;;4999776;28;20042;-78
2022/05/03 01:54:28;;;;;;;;;;;;;;;;;;5028859;28;20033;-78
2022/05/03 01:57:10;;;;;;;3.08;2.08;;;;;;;;;;5019080;28;19917;-78
2022/05/03 01:59:50;;;;;;;2.60;1.45;;;;;;;;;;4996590;28;20126;-77
2022/05/03 02:03:00;;;;;;;2.40;1.50;;;;;;;;;;4996038;28;20026;-78
2022/05/03 02:05:58;;;;;;;2.20;1.35;;;;;;;;;;5035598;28;20111;-77
2022/05/03 02:08:24;;;;;;;2.33;1.50;;;;;;;;;;5012253;28;20030;-78
2022/05/03 02:11:11;;;;;;;3.40;1.67;;;;;;;;;;5011399;28;20402;-77
2022/05/03 02:16:48;;;;;;;2.50;1.60;;;;;;;;;;5012714;28;20030;-77
2022/05/03 02:19:16;;;;;;;2.53;1.65;;;;;;;;;;4980363;28;20179;-77
2022/05/03 02:21:51;;;;;;;2.20;1.48;;;;;;;;;;5028761;28;20587;-77
2022/05/03 02:25:04;;;;;;;2.40;1.27;;;;;;;;;;5012980;28;20038;-77
2022/05/03 02:27:33;;;;;;;2.22;1.23;;;;;;;;;;5009317;28;20046;-77
2022/05/03 02:29:58;;;;;;;3.13;1.33;;;;;;;;;;5028364;28;20105;-77
2022/05/03 02:32:33;;;;;;;3.47;1.52;;;;;;;;;;5012222;28;20061;-77
2022/05/03 02:35:02;;;;;;;2.53;1.40;;;;;;;;;;4996008;28;20030;-77
2022/05/03 02:37:38;;;;;;;2.50;1.30;;;;;;;;;;5011372;28;20061;-78
2022/05/03 02:40:13;;;;;;;2.78;1.80;;;;;;;;;;5024655;28;20038;-77
2022/05/03 02:42:39;;;;;;;3.47;1.33;;;;;;;;;;4991639;28;20085;-78
2022/05/03 02:45:05;;;;;;;3.55;1.50;;;;;;;;;;5008406;28;20109;-77
2022/05/03 02:47:42;;;;;;;2.25;1.30;;;;;;;;;;4991688;28;20420;-78
2022/05/03 02:50:09;;;;;;;3.15;1.38;;;;;;;;;;5024718;28;20043;-77
2022/05/03 02:53:01;;;;;;;3.80;1.52;;;;;;;;;;5010752;28;20042;-77
2022/05/03 02:55:50;;;;;;;2.05;1.02;;;;;;;;;;5024987;28;20041;-78
2022/05/03 02:58:18;;;;;;;2.42;1.15;;;;;;;;;;5011732;28;20037;-78
2022/05/03 03:04:02;;;;;;;3.90;1.70;;;;;;;;;;5013262;28;20515;-77
2022/05/03 03:06:31;;;;;;;2.03;1.65;;;;;;;;;;4994514;28;20041;-78
2022/05/03 03:08:56;;;;;;;2.20;1.20;;;;;;;;;;5010372;28;20045;-77
2022/05/03 03:11:24;;;;;;;1.88;1.20;;;;;;;;;;5011047;28;20049;-79
2022/05/03 03:14:06;;;;;;;2.92;1.38;;;;;;;;;;5011658;28;20052;-78
2022/05/03 03:16:32;;;;;;;2.53;1.30;;;;;;;;;;5011364;28;20096;-77
2022/05/03 03:18:58;;;;;;;2.60;1.23;;;;;;;;;;4995141;28;20113;-78
2022/05/03 03:21:25;;;;;;;3.97;1.33;;;;;;;;;;5011453;28;20133;-77
2022/05/03 03:23:50;;;;;;;2.17;1.50;;;;;;;;;;4994267;28;20034;-78
2022/05/03 03:26:16;;;;;;;5.38;1.60;;;;;;;;;;4994211;28;20096;-78
2022/05/03 03:28:42;;;;;;;3.08;1.65;;;;;;;;;;4997220;28;20463;-78
2022/05/03 03:31:08;;;;;;;3.13;1.23;;;;;;;;;;5014659;28;20049;-78
2022/05/03 03:33:34;;;;;;;3.42;1.30;;;;;;;;;;5030741;28;20037;-77
2022/05/03 03:36:02;;;;;;;2.88;1.25;;;;;;;;;;5007648;28;20041;-78
2022/05/03 03:38:31;;;;;;;2.25;1.48;;;;;;;;;;5010452;28;20492;-77
2022/05/03 03:40:56;;;;;;;2.40;1.50;;;;;;;;;;4978007;28;20038;-77
2022/05/03 03:43:22;;;;;;;2.47;1.40;;;;;;;;;;4994429;28;20080;-78
2022/05/03 03:45:47;;;;;;;3.58;1.70;;;;;;;;;;5011086;28;20088;-77
2022/05/03 03:48:13;;;;;;;4.28;1.60;;;;;;;;;;4978108;28;20135;-77
2022/05/03 03:50:39;;;;;;;2.38;1.60;;;;;;;;;;5010666;28;20427;-77
2022/05/03 03:53:04;;;;;;;2.38;1.50;;;;;;;;;;4994347;28;20451;-77
2022/05/03 03:55:30;;;;;;;4.53;1.75;;;;;;;;;;5026924;28;20471;-78
2022/05/03 03:57:56;;;;;;;3.10;1.40;;;;;;;;;;5010730;28;20041;-77
2022/05/03 04:00:21;;;;;;;2.95;1.50;;;;;;;;;;4990336;28;20501;-77
2022/05/03 04:02:47;;;;;;;2.97;1.45;;;;;;;;;;4991092;28;20030;-77
2022/05/03 04:05:18;;;;;;;2.78;1.40;;;;;;;;;;4974517;28;20358;-77
2022/05/03 04:07:43;;;;;;;2.45;1.23;;;;;;;;;;4990957;28;20030;-78
2022/05/03 04:10:08;;;;;;;3.65;2.10;;;;;;;;;;4990605;28;20587;-78
2022/05/03 04:12:34;;;;;;;3.33;1.58;;;;;;;;;;4990824;28;20046;-78
2022/05/03 04:15:00;;;;;;;2.33;1.30;;;;;;;;;;4990657;28;20065;-78
2022/05/03 04:17:25;;;;;;;2.25;1.20;;;;;;;;;;4990905;28;20047;-77
2022/05/03 04:19:50;;;;;;;2.08;1.13;;;;;;;;;;4992081;28;20037;-78
2022/05/03 04:22:28;;;;;;;1.55;1.00;;;;;;;;;;4994690;28;20046;-77
2022/05/03 04:24:53;;;;;;;2.47;1.10;;;;;;;;;;5011122;28;20022;-77
2022/05/03 04:27:20;;;;;;;1.83;1.00;;;;;;;;;;4994835;28;20488;-78
2022/05/03 04:29:46;;;;;;;2.15;1.30;;;;;;;;;;5001426;28;20040;-77
2022/05/03 04:32:12;;;;;;;2.65;1.42;;;;;;;;;;5001524;28;20038;-77
2022/05/03 04:34:37;;;;;;;2.78;1.52;;;;;;;;;;5001469;28;20043;-78
2022/05/03 04:37:03;;;;;;;2.58;1.30;;;;;;;;;;4985655;28;20428;-77
2022/05/03 04:39:28;;;;;;;2.88;1.38;;;;;;;;;;4997287;28;20453;-77
2022/05/03 04:41:54;;;;;;;2.63;1.27;;;;;;;;;;4997946;28;20056;-77
2022/05/03 04:44:19;;;;;;;2.88;1.55;;;;;;;;;;4981470;28;20076;-78
2022/05/03 04:46:45;;;;;;;1.77;1.20;;;;;;;;;;4981241;28;20038;-78
2022/05/03 04:49:10;;;;;;;2.05;1.17;;;;;;;;;;4997328;28;20050;-78
2022/05/03 04:51:36;;;;;;;2.63;1.45;;;;;;;;;;4980968;28;20064;-79
2022/05/03 04:54:01;;;;;;;3.25;1.10;;;;;;;;;;4980674;28;20377;-79
2022/05/03 04:56:28;;;;;;;2.17;1.20;;;;;;;;;;5009993;28;20054;-78
2022/05/03 04:58:55;;;;;;;4.53;1.63;;;;;;;;;;5010487;28;20030;-78
2022/05/03 05:01:20;;;;;;;4.28;1.35;;;;;;;;;;5010184;28;20038;-78
2022/05/03 05:03:46;;;;;;;4.13;1.60;;;;;;;;;;4994139;28;20125;-77
2022/05/03 05:06:11;;;;;;;3.50;1.23;;;;;;;;;;5010193;28;20114;-77
2022/05/03 05:08:37;;;;;;;3.28;1.30;;;;;;;;;;5010013;28;20026;-77
2022/05/03 05:11:04;;;;;;;4.30;1.45;;;;;;;;;;4993785;28;20034;-77
2022/05/03 05:13:29;;;;;;;3.10;1.45;;;;;;;;;;5010028;28;20096;-77
2022/05/03 05:15:55;;;;;;;3.35;1.50;;;;;;;;;;5026566;28;20456;-77
2022/05/03 05:18:21;;;;;;;4.55;1.25;;;;;;;;;;5010094;28;20086;-77
2022/05/03 05:20:47;;;;;;;4.85;1.30;;;;;;;;;;5026282;28;20046;-77
2022/05/03 05:23:12;;;;;;;4.50;1.15;;;;;;;;;;4978379;28;20034;-77
2022/05/03 05:25:37;;;;;;;4.32;1.10;;;;;;;;;;5012253;28;20042;-77
2022/05/03 05:28:03;;;;;;;3.20;1.30;;;;;;;;;;5012353;28;20122;-78
2022/05/03 05:30:29;;;;;;;2.53;1.00;;;;;;;;;;5013185;28;20033;-78
2022/05/03 05:32:55;;;;;;;3.17;1.30;;;;;;;;;;5033374;28;20041;-77
2022/05/03 05:35:21;;;;;;;3.67;1.13;;;;;;;;;;5015276;28;20046;-79
2022/05/03 05:37:46;;;;;;;3.13;1.20;;;;;;;;;;5034338;28;20045;-78
2022/05/03 05:40:12;;;;;;;5.45;2.03;;;;;;;;;;5017112;28;20068;-78
2022/05/03 05:42:37;;;;;;;6.50;1.77;;;;;;;;;;4997291;28;20404;-79
2022/05/03 05:45:03;;;;;;;7.82;1.38;;;;;;;;;;4996646;28;20120;-79
2022/05/03 05:47:29;;;;;;;7.68;1.70;;;;;;;;;;4979455;28;20049;-79
2022/05/03 05:49:54;;;;;;;6.00;1.52;;;;;;;;;;5012290;28;20471;-79
2022/05/03 05:55:05;;;;;;;7.60;1.98;;;;;;;;;;4997099;28;20046;-79
2022/05/03 05:57:30;;;;;;;5.38;2.17;;;;;;;;;;4977532;28;20500;-79
2022/05/03 05:59:56;;;;;;;5.85;1.90;;;;;;;;;;4993029;28;20046;-79
2022/05/03 06:02:21;;;;;;;4.40;1.67;;;;;;;;;;4993335;28;20064;-79
2022/05/03 06:04:46;;;;;;;6.93;1.63;;;;;;;;;;5008843;28;20151;-79
2022/05/03 06:07:12;;;;;;;4.22;1.75;;;;;;;;;;5008870;28;20034;-78
2022/05/03 06:09:37;;;;;;;6.35;1.98;;;;;;;;;;4992431;28;20420;-80
2022/05/03 06:12:03;;;;;;;6.15;1.88;;;;;;;;;;4976507;28;20053;-79
2022/05/03 06:14:28;;;;;;;6.53;2.00;;;;;;;;;;4976395;28;20038;-79
2022/05/03 06:16:55;;;;;;;10.82;2.05;;;;;;;;;;4992250;28;20049;-79
2022/05/03 06:19:20;;;;;;;10.25;2.35;;;;;;;;;;4991732;28;20031;-80
2022/05/03 06:21:46;;;;;;;3.90;1.55;;;;;;;;;;4992786;28;20069;-81
2022/05/03 06:24:12;;;;;;;9.82;2.30;;;;;;;;;;4976363;28;20130;-80
2022/05/03 06:26:37;;;;;;;10.85;2.38;;;;;;;;;;5008603;28;20065;-80
2022/05/03 06:29:05;;;;;;;3.70;1.63;;;;;;;;;;4982127;28;20038;-80
2022/05/03 06:31:30;;;;;;;6.10;1.60;;;;;;;;;;5011245;28;20038;-80
2022/05/03 06:33:56;;;;;;;5.20;1.38;;;;;;;;;;4994975;28;20428;-80
2022/05/03 06:36:22;;;;;;;6.20;2.00;;;;;;;;;;5011623;28;20377;-80
2022/05/03 06:38:47;;;;;;;5.28;1.60;;;;;;;;;;5011556;28;20034;-80
2022/05/03 06:41:13;;;;;;;4.88;1.52;;;;;;;;;;4978269;28;20030;-81
2022/05/03 06:43:38;;;;;;;5.95;1.52;;;;;;;;;;4994256;28;20515;-80
2022/05/03 06:46:04;;;;;;;5.60;1.50;;;;;;;;;;4978586;28;20042;-80
2022/05/03 06:48:29;;;;;;;4.47;1.52;;;;;;;;;;4994682;28;20038;-80
2022/05/03 06:50:55;;;;;;;6.50;2.03;;;;;;;;;;4979295;28;20049;-80
2022/05/03 06:53:20;;;;;;;5.53;1.85;;;;;;;;;;4993674;28;20042;-80
2022/05/03 06:55:45;;;;;;;3.53;1.52;;;;;;;;;;5020960;28;20552;-80
2022/05/03 06:58:11;;;;;;;4.93;1.45;;;;;;;;;;5006298;28;20500;-80
2022/05/03 07:00:36;;;;;;;6.68;1.95;;;;;;;;;;4991205;28;20500;-80
2022/05/03 07:03:02;;;;;;;3.25;1.15;;;;;;;;;;5007941;28;20034;-80
2022/05/03 07:05:27;;;;;;;4.43;1.40;;;;;;;;;;5008155;28;20030;-80
2022/05/03 07:07:53;;;;;;;3.13;1.65;;;;;;;;;;5024447;28;20030;-80
2022/05/03 07:10:18;;;;;;;4.20;2.25;;;;;;;;;;5007715;28;20046;-80
2022/05/03 07:12:45;;;;;;;9.10;5.47;;;;;;;;;;5008028;28;20117;-80
2022/05/03 07:15:10;;;;;;;13.52;8.98;;;;;;;;;;4991849;28;20031;-80
2022/05/03 07:23:04;;;;;;;20.30;13.63;;;;;;;;;;4991889;28;20039;-80
2022/05/03 07:25:30;;;;;;;23.52;14.57;;;;;;;;;;5007676;28;20065;-80
2022/05/03 07:27:55;;;;;;;21.10;14.75;;;;;;;;;;4991241;28;20133;-80
2022/05/03 07:30:21;;;;;;;22.05;14.43;;;;;;;;;;5023997;28;20555;-80
2022/05/03 07:32:46;;;;;;;21.42;13.07;;;;;;;;;;5027573;28;20116;-80
2022/05/03 07:35:12;;;;;;;17.58;12.77;;;;;;;;;;5027680;28;20113;-80
2022/05/03 07:37:37;;;;;;;18.42;11.65;;;;;;;;;;5026857;28;20030;-80
2022/05/03 07:40:04;;;;;;;17.35;11.25;;;;;;;;;;5033770;28;20038;-80
2022/05/03 07:42:29;;;;;;;15.50;11.73;;;;;;;;;;4994372;28;20088;-80
2022/05/03 07:44:55;;;;;;;15.90;10.50;;;;;;;;;;5026989;28;20129;-80
2022/05/03 07:47:20;;;;;;;12.40;8.60;;;;;;;;;;4994216;28;20046;-80
2022/05/03 07:49:46;;;;;;;14.80;9.27;;;;;;;;;;4994390;28;20573;-80
2022/05/03 07:52:11;;;;;;;11.85;7.38;;;;;;;;;;4994760;28;20037;-80
2022/05/03 07:54:41;;;;;;;11.25;7.72;;;;;;;;;;4996334;28;20418;-80
2022/05/03 07:57:07;;;;;;;12.32;7.35;;;;;;;;;;4982030;28;20034;-80
2022/05/03 07:59:33;;;;;;;10.05;7.07;;;;;;;;;;4994441;28;20048;-80
2022/05/03 08:01:59;;;;;;;13.25;6.65;;;;;;;;;;5010641;28;20034;-80
2022/05/03 08:04:24;;;;;;;9.40;5.65;;;;;;;;;;5027334;28;20040;-81
2022/05/03 08:06:50;;;;;;;17.88;11.98;;;;;;;;;;4994320;28;20041;-81
2022/05/03 08:09:15;;;;;;;28.73;22.05;;;;;;;;;;5010320;28;20075;-80
2022/05/03 08:11:41;;;;;;;29.00;22.35;;;;;;;;;;5010373;28;20042;-80
2022/05/03 08:14:06;;;;;;;49.53;34.55;;;;;;;;;;5010181;28;20038;-80
2022/05/03 08:16:32;;;;;;;41.88;27.27;;;;;;;;;;5010789;28;20041;-80
2022/05/03 08:18:58;;;;;;;23.25;17.45;;;;;;;;;;4993986;28;20050;-80
2022/05/03 08:21:24;;;;;;;16.38;12.77;;;;;;;;;;4978410;28;20046;-80
2022/05/03 08:23:49;;;;;;;17.58;11.20;;;;;;;;;;4994063;28;20044;-80
2022/05/03 08:26:15;;;;;;;12.55;7.35;;;;;;;;;;4993886;28;20040;-80
2022/05/03 08:28:41;;;;;;;16.75;8.75;;;;;;;;;;5010250;28;20109;-80
2022/05/03 08:31:10;;;;;;;11.48;6.70;;;;;;;;;;5026779;28;20131;-79
2022/05/03 08:33:35;;;;;;;8.13;4.07;;;;;;;;;;5026390;28;20516;-80
2022/05/03 08:36:01;;;;;;;8.40;4.70;;;;;;;;;;5026807;28;20057;-79
2022/05/03 08:43:54;;;;;;;8.38;4.55;;;;;;;;;;4996523;28;20113;-80
2022/05/03 08:46:21;;;;;;;8.25;4.57;;;;;;;;;;4994131;28;20563;-79
2022/05/03 08:48:46;;;;;;;9.13;4.07;;;;;;;;;;4993443;28;20034;-79
2022/05/03 08:51:14;;;;;;;7.28;3.67;;;;;;;;;;4993971;28;20044;-79
2022/05/03 08:53:40;;;;;;;7.82;4.25;;;;;;;;;;4977924;28;20092;-80
2022/05/03 08:56:05;;;;;;;6.07;3.88;;;;;;;;;;5002522;28;20038;-80
2022/05/03 08:58:31;;;;;;;7.50;3.40;;;;;;;;;;4990522;28;20489;-79
2022/05/03 09:00:56;;;;;;;5.68;3.38;;;;;;;;;;5006994;28;20093;-79
2022/05/03 09:03:22;;;;;;;8.10;2.80;;;;;;;;;;4990275;28;20069;-79
2022/05/03 09:05:48;;;;;;;5.55;3.10;;;;;;;;;;4990667;28;20035;-79
2022/05/03 09:08:24;;;;;;;6.72;2.78;;;;;;;;;;5009887;28;20408;-80
2022/05/03 09:10:49;;;;;;;4.80;2.20;;;;;;;;;;5011004;28;20030;-79
2022/05/03 09:13:25;;;;;;;4.35;2.45;;;;;;;;;;5010053;28;20048;-80
2022/05/03 09:15:55;;;;;;;4.20;2.10;;;;;;;;;;4993731;28;20113;-79
2022/05/03 09:18:27;;;;;;;4.78;2.08;;;;;;;;;;5026516;28;20046;-80
2022/05/03 09:23:47;;;;;;;3.75;1.65;;;;;;;;;;4993677;28;20034;-79
2022/05/03 09:26:13;;;;;;;4.38;1.75;;;;;;;;;;4993379;28;20038;-80
2022/05/03 09:29:01;;;;;;;4.03;1.45;;;;;;;;;;4995825;28;20077;-80
2022/05/03 09:31:33;;;;;;;2.53;1.30;;;;;;;;;;5029042;28;20041;-80
2022/05/03 09:34:02;;;;;;;3.53;1.50;;;;;;;;;;5014598;28;20480;-80
2022/05/03 09:36:28;;;;;;;3.55;1.40;;;;;;;;;;5028715;28;20038;-80
2022/05/03 09:38:54;;;;;;;4.20;1.25;;;;;;;;;;4995596;28;20049;-79
2022/05/03 09:41:20;;;;;;;3.75;1.45;;;;;;;;;;4995626;28;20044;-79
2022/05/03 09:44:08;;;;;;;4.53;1.30;;;;;;;;;;5014182;28;20042;-79
2022/05/03 09:46:50;;;;;;;3.20;1.27;;;;;;;;;;4996668;28;20033;-79
2022/05/03 09:49:17;;;;;;;4.28;2.03;;;;;;;;;;4996343;28;20092;-80
2022/05/03 09:51:43;;;;;;;3.60;1.38;;;;;;;;;;4979646;28;20577;-80
2022/05/03 09:54:08;;;;;;;3.13;1.10;;;;;;;;;;4980068;28;20030;-81
2022/05/03 09:56:34;;;;;;;4.18;1.30;;;;;;;;;;4979951;28;20045;-80
2022/05/03 09:59:03;;;;;;;4.18;1.30;;;;;;;;;;5012418;28;20034;-80
2022/05/03 10:01:29;;;;;;;4.05;1.38;;;;;;;;;;5012008;28;20056;-80
2022/05/03 10:03:54;;;;;;;4.75;1.50;;;;;;;;;;5027036;28;20508;-79
2022/05/03 10:06:20;;;;;;;2.78;1.20;;;;;;;;;;4994357;28;20482;-80
2022/05/03 10:08:48;;;;;;;2.22;0.93;;;;;;;;;;5010663;28;20030;-80
2022/05/03 10:11:16;;;;;;;2.55;1.60;;;;;;;;;;5011491;28;20091;-80
2022/05/03 10:13:41;;;;;;;5.43;3.83;;;;;;;;;;5012968;28;20042;-80
2022/05/03 10:21:35;;;;;;;11.57;6.63;;;;;;;;;;5012558;28;20029;-81
2022/05/03 10:24:11;;;;;;;10.02;5.90;;;;;;;;;;5011678;28;20527;-80
2022/05/03 10:26:53;;;;;;;6.93;4.38;;;;;;;;;;5012353;28;20470;-80
2022/05/03 10:29:29;;;;;;;4.70;3.50;;;;;;;;;;5012109;28;20038;-80
2022/05/03 10:32:07;;;;;;;9.15;2.88;;;;;;;;;;5028407;28;20528;-80
2022/05/03 10:34:53;;;;;;;4.65;2.80;;;;;;;;;;5026687;28;20511;-80
2022/05/03 10:37:20;;;;;;;3.50;1.90;;;;;;;;;;5008231;28;20030;-80
2022/05/03 10:39:46;;;;;;;4.03;2.08;;;;;;;;;;4966893;28;20042;-80
2022/05/03 10:42:13;;;;;;;5.35;2.38;;;;;;;;;;5011950;28;20041;-80
2022/05/03 10:44:45;;;;;;;3.70;2.08;;;;;;;;;;4995412;28;20477;-80
2022/05/03 10:47:12;;;;;;;4.20;1.20;;;;;;;;;;5011682;28;20030;-80
2022/05/03 10:50:10;;;;;;;3.80;1.92;;;;;;;;;;4979324;28;20042;-80
2022/05/03 10:52:35;;;;;;;5.18;3.00;;;;;;;;;;4999716;28;20077;-82
2022/05/03 10:55:07;;;;;;;27.48;20.83;;;;;;;;;;4998345;28;20042;-80
2022/05/03 10:57:33;;;;;;;12.57;9.45;;;;;;;;;;4963143;28;20075;-80
2022/05/03 10:59:59;;;;;;;16.63;12.07;;;;;;;;;;5028168;28;20133;-80
2022/05/03 11:02:24;;;;;;;23.55;17.55;;;;;;;;;;4995261;28;20038;-80
2022/05/03 11:05:18;;;;;;;24.40;16.40;;;;;;;;;;5011341;28;20038;-80
2022/05/03 11:08:21;;;;;;;15.23;10.13;;;;;;;;;;4994807;28;20034;-81
2022/05/03 11:10:46;;;;;;;23.65;15.30;;;;;;;;;;4994912;28;20038;-80
2022/05/03 11:13:37;;;;;;;14.80;10.45;;;;;;;;;;5011450;28;20476;-80
2022/05/03 11:16:23;;;;;;;11.07;8.35;;;;;;;;;;4994961;28;20096;-80
2022/05/03 11:18:49;;;;;;;12.20;7.63;;;;;;;;;;5027904;28;20594;-80
2022/05/03 11:21:15;;;;;;;12.52;6.68;;;;;;;;;;5011294;28;20074;-80
2022/05/03 11:23:54;;;;;;;10.93;6.28;;;;;;;;;;5011015;28;20092;-80
2022/05/03 11:26:21;;;;;;;8.52;5.45;;;;;;;;;;5011194;28;20076;-80
2022/05/03 11:28:48;;;;;;;8.20;5.10;;;;;;;;;;5010578;28;20041;-80
2022/05/03 11:31:17;;;;;;;9.68;5.65;;;;;;;;;;5027302;28;20547;-80
2022/05/03 11:33:52;;;;;;;7.22;4.47;;;;;;;;;;5010924;28;20065;-80
2022/05/03 11:36:21;;;;;;;7.47;5.07;;;;;;;;;;5027491;28;20034;-80
2022/05/03 11:38:48;;;;;;;7.13;4.93;;;;;;;;;;5027168;28;20079;-80
2022/05/03 11:41:14;;;;;;;8.15;4.82;;;;;;;;;;5010632;28;20583;-80
2022/05/03 11:43:39;;;;;;;6.22;3.72;;;;;;;;;;4978764;28;20136;-80
2022/05/03 11:46:04;;;;;;;6.50;3.90;;;;;;;;;;4994423;28;20069;-80
2022/05/03 11:48:30;;;;;;;6.10;3.95;;;;;;;;;;4977902;28;20042;-80
2022/05/03 11:56:24;;;;;;;5.20;3.22;;;;;;;;;;5005078;28;20042;-80
2022/05/03 11:58:50;;;;;;;5.65;3.10;;;;;;;;;;4990968;28;20089;-80
2022/05/03 12:01:16;;;;;;;5.45;2.78;;;;;;;;;;4974801;28;20045;-80
2022/05/03 12:03:48;;;;;;;5.00;3.33;;;;;;;;;;5007663;28;20034;-80
2022/05/03 12:06:15;;;;;;;4.88;2.92;;;;;;;;;;4990956;28;20030;-81
2022/05/03 12:08:40;;;;;;;3.75;2.58;;;;;;;;;;4990838;28;20404;-80
2022/05/03 12:11:17;;;;;;;6.68;3.13;;;;;;;;;;5007069;28;20075;-80
2022/05/03 12:13:42;;;;;;;5.35;2.72;;;;;;;;;;4990994;28;20038;-80
2022/05/03 12:16:09;;;;;;;3.55;2.13;;;;;;;;;;5007150;28;20053;-80
2022/05/03 12:18:39;;;;;;;4.82;2.47;;;;;;;;;;4974777;28;20042;-80
2022/05/03 12:21:17;;;;;;;3.83;2.10;;;;;;;;;;4974909;28;20046;-80
2022/05/03 12:23:46;;;;;;;2.83;1.90;;;;;;;;;;5006936;28;20030;-80
2022/05/03 12:26:20;;;;;;;5.13;2.83;;;;;;;;;;5007151;28;20125;-80
2022/05/03 12:28:52;;;;;;;3.85;2.20;;;;;;;;;;4993969;28;20029;-80
2022/05/03 12:31:18;;;;;;;3.45;1.90;;;;;;;;;;5043811;28;20103;-80
2022/05/03 12:33:53;;;;;;;3.15;1.80;;;;;;;;;;5010423;28;20049;-80
2022/05/03 12:36:31;;;;;;;4.07;1.85;;;;;;;;;;5025961;28;20041;-80
2022/05/03 12:38:56;;;;;;;3.92;1.50;;;;;;;;;;5011356;28;20533;-80
2022/05/03 12:41:27;;;;;;;3.30;1.60;;;;;;;;;;4996009;28;20042;-80
2022/05/03 12:44:06;;;;;;;5.05;1.73;;;;;;;;;;4998082;28;20041;-80
2022/05/03 12:46:32;;;;;;;3.13;1.55;;;;;;;;;;4998328;28;20510;-80
2022/05/03 12:48:57;;;;;;;5.03;1.70;;;;;;;;;;4980915;28;20106;-80
2022/05/03 12:51:24;;;;;;;3.35;1.70;;;;;;;;;;4997480;28;20050;-80
2022/05/03 12:53:50;;;;;;;3.20;1.40;;;;;;;;;;4994340;28;20042;-80
2022/05/03 12:58:59;;;;;;;2.50;1.30;;;;;;;;;;5013615;28;20404;-80
2022/05/03 13:01:25;;;;;;;3.00;1.38;;;;;;;;;;4997408;28;20116;-81
2022/05/03 13:03:50;;;;;;;1.95;1.15;;;;;;;;;;5013521;28;20411;-80
2022/05/03 13:06:17;;;;;;;2.75;1.17;;;;;;;;;;5030484;28;20037;-80
2022/05/03 13:08:43;;;;;;;2.60;1.48;;;;;;;;;;5013430;28;20036;-80
2022/05/03 13:11:08;;;;;;;3.78;1.60;;;;;;;;;;5013341;28;20112;-80
2022/05/03 13:13:35;;;;;;;2.45;1.33;;;;;;;;;;5013554;28;20095;-80
2022/05/03 13:16:00;;;;;;;2.83;1.58;;;;;;;;;;5013389;28;20092;-80
2022/05/03 13:18:25;;;;;;;2.40;1.25;;;;;;;;;;5013335;28;20038;-80
2022/05/03 13:20:51;;;;;;;2.67;1.20;;;;;;;;;;5013659;28;20496;-80
2022/05/03 13:23:16;;;;;;;2.95;1.38;;;;;;;;;;4996756;28;20050;-80
2022/05/03 13:25:42;;;;;;;2.33;1.23;;;;;;;;;;5013519;28;20038;-80
2022/05/03 13:28:07;;;;;;;3.08;1.50;;;;;;;;;;5012964;28;20038;-80
2022/05/03 13:30:33;;;;;;;2.97;1.42;;;;;;;;;;5013181;28;20097;-80
2022/05/03 13:32:59;;;;;;;3.15;1.13;;;;;;;;;;5011859;28;20037;-80
2022/05/03 13:40:53;;;;;;;2.47;1.50;;;;;;;;;;5013287;28;20041;-80
2022/05/03 13:43:19;;;;;;;2.17;1.30;;;;;;;;;;5012846;28;20123;-81
2022/05/03 13:45:44;;;;;;;2.67;1.10;;;;;;;;;;4996628;28;20389;-80
2022/05/03 13:48:10;;;;;;;2.03;1.08;;;;;;;;;;4996010;28;20060;-80
2022/05/03 13:50:38;;;;;;;2.28;1.13;;;;;;;;;;4996608;28;20057;-80
2022/05/03 13:53:04;;;;;;;3.05;1.17;;;;;;;;;;4976426;28;20027;-80
2022/05/03 13:55:29;;;;;;;3.45;1.10;;;;;;;;;;5011680;28;20487;-80
2022/05/03 13:57:55;;;;;;;4.20;1.52;;;;;;;;;;5012659;28;20030;-80
2022/05/03 14:00:20;;;;;;;3.25;1.10;;;;;;;;;;5012667;28;20176;-80
2022/05/03 14:02:46;;;;;;;2.35;1.00;;;;;;;;;;5012357;28;20036;-80
2022/05/03 14:05:11;;;;;;;1.58;1.20;;;;;;;;;;5012494;28;20381;-81
2022/05/03 14:07:37;;;;;;;1.92;0.88;;;;;;;;;;4995715;28;20523;-81
2022/05/03 14:10:03;;;;;;;1.73;1.15;;;;;;;;;;5012757;28;20037;-81
2022/05/03 14:12:30;;;;;;;2.58;1.10;;;;;;;;;;4996245;28;20033;-81
2022/05/03 14:14:55;;;;;;;3.22;0.98;;;;;;;;;;5029188;28;20408;-80
2022/05/03 14:17:20;;;;;;;1.13;0.80;;;;;;;;;;5012048;28;20034;-80
2022/05/03 14:19:46;;;;;;;2.17;1.40;;;;;;;;;;5028857;28;20050;-81
2022/05/03 14:22:11;;;;;;;1.70;0.98;;;;;;;;;;5012121;28;20037;-80
2022/05/03 14:24:37;;;;;;;2.30;1.05;;;;;;;;;;5012166;28;20069;-81
2022/05/03 14:27:02;;;;;;;2.13;0.90;;;;;;;;;;5011800;28;20030;-80
2022/05/03 14:29:28;;;;;;;2.92;0.95;;;;;;;;;;5012257;28;20029;-80
2022/05/03 14:31:55;;;;;;;1.40;1.00;;;;;;;;;;5012042;28;20523;-81
2022/05/03 14:34:21;;;;;;;1.98;0.90;;;;;;;;;;5028638;28;20117;-80
2022/05/03 14:36:46;;;;;;;1.77;0.90;;;;;;;;;;5028491;28;20120;-80
2022/05/03 14:39:11;;;;;;;2.10;0.82;;;;;;;;;;5011682;28;20061;-81
2022/05/03 14:41:38;;;;;;;2.55;0.90;;;;;;;;;;4979266;28;20041;-80
2022/05/03 14:44:04;;;;;;;2.47;0.95;;;;;;;;;;4995751;28;20042;-80
2022/05/03 14:46:30;;;;;;;1.98;0.90;;;;;;;;;;4979061;28;20041;-80
2022/05/03 14:48:55;;;;;;;2.67;0.80;;;;;;;;;;4978932;28;20034;-80
2022/05/03 14:51:21;;;;;;;1.95;0.77;;;;;;;;;;4995110;28;20404;-80
2022/05/03 14:53:47;;;;;;;3.03;1.02;;;;;;;;;;4979051;28;20432;-81
2022/05/03 15:04:24;;;;;;;2.20;0.90;;;;;;;;;;4990636;28;20117;-80
2022/05/03 15:06:49;;;;;;;2.75;1.00;;;;;;;;;;5008278;28;20053;-81
2022/05/03 15:09:15;;;;;;;1.70;0.95;;;;;;;;;;4991452;28;20034;-80
2022/05/03 15:11:40;;;;;;;1.88;1.20;;;;;;;;;;4975519;28;20066;-80
2022/05/03 15:14:06;;;;;;;3.50;1.10;;;;;;;;;;4991408;28;20042;-81
2022/05/03 15:16:32;;;;;;;3.22;1.63;;;;;;;;;;4975747;28;20034;-81
2022/05/03 15:18:57;;;;;;;2.83;1.20;;;;;;;;;;4991691;28;20045;-81
2022/05/03 15:21:22;;;;;;;3.40;1.83;;;;;;;;;;4991580;28;20042;-81
2022/05/03 15:26:33;;;;;;;2.33;1.13;;;;;;;;;;5010418;28;20053;-80
2022/05/03 15:28:59;;;;;;;2.40;1.27;;;;;;;;;;4995979;28;20033;-80
2022/05/03 15:31:24;;;;;;;1.85;0.90;;;;;;;;;;5011068;28;20044;-80
2022/05/03 15:33:49;;;;;;;2.17;1.05;;;;;;;;;;5011212;28;20046;-80
2022/05/03 15:36:15;;;;;;;3.00;1.77;;;;;;;;;;5010705;28;20036;-81
2022/05/03 15:38:40;;;;;;;3.22;1.10;;;;;;;;;;5027377;28;20408;-80
2022/05/03 15:41:06;;;;;;;4.70;1.27;;;;;;;;;;5010873;28;20393;-80
2022/05/03 15:43:34;;;;;;;1.73;0.93;;;;;;;;;;4994766;28;20034;-81
2022/05/03 15:46:03;;;;;;;2.78;1.25;;;;;;;;;;4979248;28;20093;-81
2022/05/03 15:48:29;;;;;;;2.03;0.90;;;;;;;;;;4978282;28;20569;-80